Time;durP1;ratioP1;P1;durP2;ratioP2;P2;SDS_P1;SDS_P2;PMS_P1;PMS_P2;Temp;Humidity;BMP_temperature;BMP_pressure;BME280_temperature;BME280_humidity;BME280_pressure;Samples;Min_cycle;Max_cycle;Signal;HPM_P1;HPM_P2
2021/01/27 00:00:57;;;;;;;38.60;16.60;;;;;;;0.00;82.47;99957.45;124684;1110;23017;-54
2021/01/27 00:03:26;;;;;;;37.73;15.20;;;;;;;0.00;83.43;99954.70;124610;1110;25956;-57
2021/01/27 00:05:56;;;;;;;37.27;14.57;;;;;;;-0.02;83.56;99951.60;124568;1112;22999;-56
2021/01/27 00:08:25;;;;;;;40.30;15.60;;;;;;;-0.02;83.77;99957.09;124704;1110;24269;-54
2021/01/27 00:10:55;;;;;;;38.35;15.98;;;;;;;-0.03;83.73;99941.05;124662;1110;23222;-57
2021/01/27 00:13:24;;;;;;;41.00;16.43;;;;;;;-0.03;82.96;99943.80;124639;1110;23030;-55
2021/01/27 00:15:54;;;;;;;40.40;15.20;;;;;;;-0.04;83.11;99948.50;124530;1111;23040;-57
2021/01/27 00:18:23;;;;;;;38.50;12.93;;;;;;;-0.04;83.64;99939.48;124727;1111;23090;-56
2021/01/27 00:20:52;;;;;;;38.00;15.50;;;;;;;-0.04;83.74;99945.75;124641;1110;23083;-56
2021/01/27 00:23:21;;;;;;;34.90;13.90;;;;;;;-0.04;82.90;99947.71;124486;1111;23057;-54
2021/01/27 00:25:51;;;;;;;39.70;16.50;;;;;;;-0.03;82.90;99941.83;124627;1111;23194;-54
2021/01/27 00:28:21;;;;;;;33.55;14.50;;;;;;;-0.02;82.78;99946.11;124795;1112;25088;-57
2021/01/27 00:30:49;;;;;;;39.97;16.30;;;;;;;-0.02;83.38;99942.58;124683;1110;23031;-54
2021/01/27 00:33:20;;;;;;;35.30;13.87;;;;;;;-0.01;83.44;99947.68;124632;1110;22991;-57
2021/01/27 00:35:51;;;;;;;40.70;14.67;;;;;;;0.00;83.07;99942.98;124698;1111;23021;-57
2021/01/27 00:38:21;;;;;;;;;;;;;;;0.00;83.05;99951.96;124775;1110;23139;-59
2021/01/27 00:40:52;;;;;;;40.85;16.25;;;;;;;-0.01;83.53;99953.17;124711;1111;21521;-56
2021/01/27 00:43:20;;;;;;;;;;;;;;;-0.02;83.54;99948.08;124892;1111;24487;-54
2021/01/27 00:45:50;;;;;;;38.07;15.13;;;;;;;-0.02;82.98;99948.86;124657;1110;21635;-54
2021/01/27 00:48:20;;;;;;;41.53;16.53;;;;;;;-0.02;83.43;99943.37;124782;1110;23019;-55
2021/01/27 00:50:49;;;;;;;42.38;16.67;;;;;;;0.00;83.74;99953.95;124650;1111;23027;-55
2021/01/27 00:53:19;;;;;;;42.20;18.40;;;;;;;0.02;83.75;99953.53;124722;1112;22987;-57
2021/01/27 00:55:47;;;;;;;39.93;16.80;;;;;;;0.03;83.13;99949.58;124796;1111;22989;-54
2021/01/27 00:58:17;;;;;;;42.93;16.30;;;;;;;0.03;83.31;99952.32;124781;1110;23101;-54
2021/01/27 01:00:46;;;;;;;46.98;17.45;;;;;;;0.04;83.88;99957.42;124804;1110;23204;-57
2021/01/27 01:03:15;;;;;;;43.70;17.67;;;;;;;0.05;83.90;99953.47;124871;1111;23219;-55
2021/01/27 01:05:45;;;;;;;45.87;17.67;;;;;;;0.06;83.79;99960.52;124843;1110;22991;-56
2021/01/27 01:08:17;;;;;;;41.70;17.40;;;;;;;0.07;83.12;99959.31;124864;1110;27630;-57
2021/01/27 01:10:50;;;;;;;46.50;16.93;;;;;;;0.07;83.87;99964.02;124847;1111;23080;-56
2021/01/27 01:13:22;;;;;;;32.53;14.10;;;;;;;0.07;83.13;99958.53;124784;1110;27365;-58
2021/01/27 01:15:53;;;;;;;34.10;13.67;;;;;;;0.07;82.90;99961.28;124688;1110;23077;-56
2021/01/27 01:18:22;;;;;;;;;;;;;;;0.07;83.35;99969.52;124799;1110;27431;-54
2021/01/27 01:20:51;;;;;;;39.70;15.90;;;;;;;0.07;83.33;99961.28;124665;1112;21605;-56
2021/01/27 01:23:22;;;;;;;33.97;14.27;;;;;;;0.07;83.20;99964.81;124759;1110;23023;-56
2021/01/27 01:25:51;;;;;;;34.05;13.00;;;;;;;0.07;83.26;99964.81;124723;1110;25239;-57
2021/01/27 01:28:21;;;;;;;37.17;14.93;;;;;;;0.07;83.70;99958.53;124735;1111;23063;-57
2021/01/27 01:30:51;;;;;;;38.13;15.03;;;;;;;0.07;83.52;99959.31;124823;1112;23034;-55
2021/01/27 01:33:23;;;;;;;35.38;14.60;;;;;;;0.07;83.28;99956.57;124506;1110;23148;-56
2021/01/27 01:35:53;;;;;;;35.67;14.90;;;;;;;0.07;82.89;99961.28;124713;1110;23090;-56
2021/01/27 01:38:23;;;;;;;35.00;15.17;;;;;;;0.07;83.83;99958.53;124718;1110;23110;-57
2021/01/27 01:40:54;;;;;;;32.00;12.53;;;;;;;0.07;83.19;99955.79;124691;1112;23070;-57
2021/01/27 01:43:26;;;;;;;39.13;15.57;;;;;;;0.08;83.32;99957.36;124712;1110;23019;-57
2021/01/27 01:45:57;;;;;;;35.67;14.33;;;;;;;0.08;83.07;99954.61;124663;1111;23016;-57
2021/01/27 01:48:34;;;;;;;41.63;17.13;;;;;;;0.08;83.00;99955.39;124752;1111;24463;-56
2021/01/27 01:51:12;;;;;;;38.47;14.13;;;;;;;0.09;82.86;99956.15;124454;1113;23048;-58
2021/01/27 01:53:42;;;;;;;37.53;14.60;;;;;;;0.08;83.88;99952.66;124321;1110;23093;-57
2021/01/27 01:56:14;;;;;;;35.15;14.50;;;;;;;0.08;83.84;99949.13;124491;1113;23077;-58
2021/01/27 01:58:44;;;;;;;37.45;14.05;;;;;;;0.07;83.85;99953.83;124525;1111;23071;-57
2021/01/27 02:01:15;;;;;;;42.33;16.57;;;;;;;0.09;83.03;99950.66;124363;1112;23060;-54
2021/01/27 02:03:44;;;;;;;35.33;15.27;;;;;;;0.08;83.65;99949.91;124366;1112;23079;-54
2021/01/27 02:06:17;;;;;;;36.15;14.33;;;;;;;0.08;83.01;99947.16;124466;1112;23077;-54
2021/01/27 02:08:52;;;;;;;31.40;13.17;;;;;;;0.07;83.54;99950.30;124362;1110;23021;-56
2021/01/27 02:11:34;;;;;;;35.33;14.07;;;;;;;0.06;82.98;99949.55;124450;1111;24697;-57
2021/01/27 02:14:16;;;;;;;35.87;13.73;;;;;;;0.05;83.49;99952.69;124360;1111;23089;-57
2021/01/27 02:16:55;;;;;;;34.10;13.63;;;;;;;0.05;83.78;99955.42;124451;1112;23005;-54
2021/01/27 02:20:19;;;;;;;29.83;10.97;;;;;;;0.02;83.02;99948.83;124399;1112;23161;-54
2021/01/27 02:23:16;;;;;;;35.03;14.03;;;;;;;0.02;82.98;99957.06;124372;1112;23155;-55
2021/01/27 02:26:02;;;;;;;34.53;13.10;;;;;;;0.02;83.16;99953.53;124281;1112;23096;-56
2021/01/27 02:29:06;;;;;;;34.87;13.47;;;;;;;0.01;82.89;99952.75;124443;1112;26168;-55
2021/01/27 02:31:42;;;;;;;29.40;9.70;;;;;;;0.02;83.06;99957.06;124099;1115;24698;-54
2021/01/27 02:34:43;;;;;;;29.13;10.93;;;;;;;0.02;83.38;99956.27;124068;1116;23068;-56
2021/01/27 02:37:17;;;;;;;27.07;11.20;;;;;;;0.02;83.29;99959.02;123995;1115;24646;-56
2021/01/27 02:39:50;;;;;;;31.63;11.33;;;;;;;0.00;83.37;99948.47;124134;1115;27543;-56
2021/01/27 02:42:24;;;;;;;30.40;12.17;;;;;;;-0.01;83.14;99955.91;124050;1115;23305;-55
2021/01/27 02:44:58;;;;;;;33.63;11.30;;;;;;;-0.03;83.48;99955.55;124099;1116;23048;-57
2021/01/27 02:47:40;;;;;;;27.57;10.63;;;;;;;-0.05;82.77;99957.94;124043;1115;23093;-54
2021/01/27 02:50:14;;;;;;;33.27;12.40;;;;;;;-0.04;82.83;99955.94;124169;1116;23096;-54
2021/01/27 02:52:51;;;;;;;27.65;9.25;;;;;;;-0.05;83.01;99957.15;124206;1115;23040;-56
2021/01/27 02:55:24;;;;;;;31.23;12.60;;;;;;;-0.05;83.57;99960.67;124006;1115;24318;-55
2021/01/27 02:58:00;;;;;;;28.53;11.80;;;;;;;-0.03;82.93;99968.48;124127;1115;23137;-54
2021/01/27 03:00:33;;;;;;;31.47;11.50;;;;;;;-0.04;82.92;99961.43;124192;1115;23097;-57
2021/01/27 03:03:11;;;;;;;29.53;11.23;;;;;;;-0.03;83.06;99963.00;124099;1112;23023;-54
2021/01/27 03:05:44;;;;;;;29.70;10.43;;;;;;;-0.02;83.61;99964.54;124021;1115;27335;-57
2021/01/27 03:08:18;;;;;;;29.07;9.37;;;;;;;-0.04;82.58;99964.96;124159;1110;23017;-54
2021/01/27 03:10:53;;;;;;;27.43;9.23;;;;;;;-0.04;83.18;99969.66;124355;1109;23184;-56
2021/01/27 03:13:23;;;;;;;27.00;9.13;;;;;;;-0.05;82.38;99968.13;124326;1109;24681;-53
2021/01/27 03:15:54;;;;;;;27.10;9.65;;;;;;;-0.05;83.10;99974.40;124397;1110;23073;-55
2021/01/27 03:18:27;;;;;;;25.03;8.83;;;;;;;-0.06;83.26;99970.09;124442;1109;23027;-55
2021/01/27 03:21:01;;;;;;;25.57;9.67;;;;;;;-0.06;82.61;99978.31;124548;1110;22992;-57
2021/01/27 03:23:37;;;;;;;29.33;11.67;;;;;;;-0.06;82.65;99974.79;124397;1109;23221;-56
2021/01/27 03:26:14;;;;;;;29.33;10.03;;;;;;;-0.05;82.55;99976.36;124504;1112;23223;-55
2021/01/27 03:28:51;;;;;;;27.33;8.03;;;;;;;-0.06;83.32;99983.02;124384;1112;23107;-56
2021/01/27 03:31:20;;;;;;;26.93;8.80;;;;;;;-0.07;82.43;99985.02;124437;1108;23067;-57
2021/01/27 03:33:55;;;;;;;18.92;5.92;;;;;;;-0.09;82.50;99989.35;124566;1112;22999;-57
2021/01/27 03:36:27;;;;;;;22.57;7.70;;;;;;;-0.11;83.11;99986.24;124364;1109;22990;-57
2021/01/27 03:38:57;;;;;;;25.10;7.90;;;;;;;-0.15;82.38;99988.27;124388;1111;26443;-54
2021/01/27 03:41:32;;;;;;;21.60;6.10;;;;;;;-0.21;82.12;99993.41;124674;1109;23164;-54
2021/01/27 03:44:06;;;;;;;23.83;7.40;;;;;;;-0.28;82.08;100000.97;124386;1109;23096;-55
2021/01/27 03:46:41;;;;;;;21.30;6.17;;;;;;;-0.35;82.57;100003.81;124553;1109;24830;-54
2021/01/27 03:49:15;;;;;;;21.10;6.60;;;;;;;-0.41;82.34;99997.99;124520;1110;23001;-53
2021/01/27 03:51:51;;;;;;;22.87;8.13;;;;;;;-0.47;82.87;99999.64;124402;1110;23223;-57
2021/01/27 03:54:23;;;;;;;19.95;6.25;;;;;;;-0.52;82.70;100002.84;124333;1110;26444;-54
2021/01/27 03:57:01;;;;;;;20.70;7.20;;;;;;;-0.54;83.04;100007.97;124324;1109;27156;-54
2021/01/27 03:59:30;;;;;;;24.83;7.40;;;;;;;-0.55;82.86;100009.13;124409;1109;23192;-56
2021/01/27 04:02:00;;;;;;;29.67;8.53;;;;;;;-0.56;82.64;100004.07;124441;1112;23151;-54
2021/01/27 04:04:29;;;;;;;24.75;8.73;;;;;;;-0.57;83.07;100010.73;124421;1109;23105;-54
2021/01/27 04:06:59;;;;;;;26.90;9.85;;;;;;;-0.56;83.32;100010.31;124443;1110;23014;-58
2021/01/27 04:09:28;;;;;;;30.23;9.73;;;;;;;-0.56;83.25;100002.08;124423;1112;23040;-58
2021/01/27 04:11:57;;;;;;;30.53;10.03;;;;;;;-0.56;83.33;100002.08;124418;1110;23347;-54
2021/01/27 04:14:26;;;;;;;30.67;11.00;;;;;;;-0.58;82.73;99998.98;124481;1110;23020;-54
2021/01/27 04:16:55;;;;;;;28.90;10.60;;;;;;;-0.59;82.90;99999.39;124557;1112;23090;-55
2021/01/27 04:19:24;;;;;;;25.17;8.83;;;;;;;-0.62;83.27;99997.48;124424;1109;23147;-56
2021/01/27 04:21:53;;;;;;;31.40;9.97;;;;;;;-0.64;82.94;100008.08;124386;1110;26453;-56
2021/01/27 04:24:22;;;;;;;25.50;8.23;;;;;;;-0.68;83.11;100007.34;124441;1110;23068;-53
2021/01/27 04:26:51;;;;;;;26.50;8.07;;;;;;;-0.71;83.04;99995.23;124400;1109;22961;-56
2021/01/27 04:29:20;;;;;;;23.23;8.60;;;;;;;-0.72;82.29;100003.88;124502;1110;23018;-54
2021/01/27 04:31:49;;;;;;;26.83;8.80;;;;;;;-0.72;83.21;100003.88;124438;1112;23017;-55
2021/01/27 04:34:20;;;;;;;27.73;7.33;;;;;;;-0.74;82.31;100008.95;124379;1109;27367;-56
2021/01/27 04:36:49;;;;;;;21.70;7.20;;;;;;;-0.77;82.33;100007.83;124397;1110;23018;-55
2021/01/27 04:39:18;;;;;;;23.47;6.90;;;;;;;-0.78;82.33;100010.95;124288;1110;27784;-59
2021/01/27 04:41:48;;;;;;;24.43;7.73;;;;;;;-0.82;82.91;100009.05;124415;1110;23251;-55
2021/01/27 04:44:17;;;;;;;25.63;7.93;;;;;;;-0.84;82.63;100013.37;124371;1110;23022;-55
2021/01/27 04:47:00;;;;;;;25.70;7.73;;;;;;;-0.88;82.50;100012.64;124439;1112;27627;-56
2021/01/27 04:49:34;;;;;;;28.60;8.00;;;;;;;-0.91;82.98;100013.47;124527;1109;23017;-55
2021/01/27 04:52:10;;;;;;;21.10;6.50;;;;;;;-0.92;82.29;100020.12;124477;1113;23020;-54
2021/01/27 04:54:57;;;;;;;23.30;5.80;;;;;;;-0.92;82.25;100017.38;124427;1113;23158;-56
2021/01/27 04:57:49;;;;;;;18.90;4.60;;;;;;;-0.92;83.09;100011.89;124395;1110;26456;-54
2021/01/27 05:00:44;;;;;;;20.53;6.00;;;;;;;-0.91;83.14;100021.69;124453;1109;26185;-54
2021/01/27 05:03:35;;;;;;;17.87;4.80;;;;;;;-0.91;82.76;100014.22;124460;1110;23241;-55
2021/01/27 05:06:09;;;;;;;26.77;7.23;;;;;;;-0.89;83.28;100016.58;124386;1110;27335;-56
2021/01/27 05:08:45;;;;;;;20.53;6.27;;;;;;;-0.86;82.72;100019.27;124493;1110;23255;-56
2021/01/27 05:11:19;;;;;;;19.10;4.30;;;;;;;-0.84;83.05;100016.90;124377;1109;23073;-55
2021/01/27 05:13:52;;;;;;;13.97;4.23;;;;;;;-0.82;82.83;100022.75;124524;1111;27372;-54
2021/01/27 05:16:24;;;;;;;19.23;5.70;;;;;;;-0.83;82.83;100018.44;124436;1109;23027;-56
2021/01/27 05:18:55;;;;;;;17.27;4.27;;;;;;;-0.83;82.74;100014.95;124542;1110;23100;-54
2021/01/27 05:21:28;;;;;;;21.13;5.37;;;;;;;-0.85;82.32;100015.33;124419;1109;24987;-54
2021/01/27 05:23:58;;;;;;;20.07;6.00;;;;;;;-0.87;82.33;100019.69;124398;1109;24389;-56
2021/01/27 05:26:35;;;;;;;19.60;5.47;;;;;;;-0.90;81.79;100024.02;124455;1110;24822;-55
2021/01/27 05:29:07;;;;;;;18.17;4.70;;;;;;;-0.92;82.47;100020.12;124416;1113;23187;-54
2021/01/27 05:32:07;;;;;;;18.50;5.55;;;;;;;-0.94;82.27;100017.79;124567;1109;23024;-55
2021/01/27 05:34:39;;;;;;;17.62;4.72;;;;;;;-0.93;82.13;100018.55;124455;1112;26443;-54
2021/01/27 05:37:12;;;;;;;19.37;6.07;;;;;;;-0.94;82.66;100017.01;124381;1112;23618;-54
2021/01/27 05:39:43;;;;;;;22.00;6.50;;;;;;;-0.92;82.01;100018.16;124506;1111;23129;-56
2021/01/27 05:42:32;;;;;;;20.90;5.55;;;;;;;-0.90;82.27;100021.27;124442;1112;23083;-57
2021/01/27 05:45:33;;;;;;;26.77;6.50;;;;;;;-0.88;81.98;100021.64;124367;1112;24668;-54
2021/01/27 05:48:26;;;;;;;17.93;4.33;;;;;;;-0.84;82.55;100019.64;124349;1112;23024;-54
2021/01/27 05:51:11;;;;;;;19.43;4.90;;;;;;;-0.82;81.74;100022.75;124319;1112;23054;-55
2021/01/27 05:53:41;;;;;;;19.33;5.17;;;;;;;-0.78;81.80;100019.97;124327;1112;23220;-55
2021/01/27 05:56:17;;;;;;;20.95;5.00;;;;;;;-0.76;81.66;100023.08;124448;1112;23073;-57
2021/01/27 05:58:57;;;;;;;22.40;5.27;;;;;;;-0.73;81.58;100022.27;124375;1112;23171;-56
2021/01/27 06:01:44;;;;;;;18.47;4.87;;;;;;;-0.71;81.63;100014.42;124155;1112;23028;-56
2021/01/27 06:04:21;;;;;;;19.37;4.53;;;;;;;-0.69;81.68;100023.02;124355;1112;23078;-59
2021/01/27 06:07:03;;;;;;;15.17;3.40;;;;;;;-0.68;82.19;100024.55;124418;1112;23019;-61
2021/01/27 06:09:43;;;;;;;14.93;3.40;;;;;;;-0.66;81.28;100018.68;124243;1110;26064;-58
2021/01/27 06:12:13;;;;;;;;;;;;;;;-0.65;82.02;100021.01;124285;1111;22981;-65
2021/01/27 06:14:42;;;;;;;15.43;4.07;;;;;;;-0.65;81.72;100025.70;124238;1112;21614;-64
2021/01/27 06:17:28;;;;;;;15.10;2.90;;;;;;;-0.64;81.82;100028.03;124271;1108;23014;-58
2021/01/27 06:20:05;;;;;;;15.27;3.43;;;;;;;-0.63;81.45;100035.08;124443;1112;23074;-60
2021/01/27 06:23:00;;;;;;;14.60;3.50;;;;;;;-0.62;81.89;100025.66;124461;1110;26543;-58
2021/01/27 06:25:44;;;;;;;13.33;2.90;;;;;;;-0.59;81.39;100029.55;124398;1112;23135;-58
2021/01/27 06:28:42;;;;;;;16.43;3.27;;;;;;;-0.57;81.67;100027.17;124330;1111;23036;-57
2021/01/27 06:31:22;;;;;;;16.10;3.60;;;;;;;-0.56;81.89;100032.24;124130;1112;23028;-56
2021/01/27 06:34:25;;;;;;;17.57;4.10;;;;;;;-0.53;81.44;100033.39;124049;1110;23037;-56
2021/01/27 06:37:10;;;;;;;15.80;3.23;;;;;;;-0.50;81.62;100035.33;124542;1112;23282;-58
2021/01/27 06:40:27;;;;;;;17.30;4.40;;;;;;;-0.46;81.42;100031.37;124485;1112;26166;-56
2021/01/27 06:43:21;;;;;;;15.43;3.93;;;;;;;-0.44;81.75;100039.97;123662;1115;27590;-58
2021/01/27 06:46:12;;;;;;;13.07;3.77;;;;;;;-0.40;81.64;100035.21;123814;1115;23010;-56
2021/01/27 06:49:11;;;;;;;16.03;4.33;;;;;;;-0.36;81.42;100038.69;123711;1116;23036;-57
2021/01/27 06:52:05;;;;;;;22.47;5.63;;;;;;;-0.34;82.13;100036.31;124089;1115;23055;-56
2021/01/27 06:54:50;;;;;;;18.47;4.93;;;;;;;-0.31;81.83;100032.73;123915;1115;23245;-57
2021/01/27 06:57:31;;;;;;;26.03;5.57;;;;;;;-0.28;81.50;100039.37;126443;1115;23043;-59
2021/01/27 07:00:34;;;;;;;22.65;5.75;;;;;;;-0.26;82.33;100043.27;123626;1114;25778;-60
2021/01/27 07:03:45;;;;;;;21.67;6.40;;;;;;;-0.24;82.23;100040.89;125245;1112;23235;-58
2021/01/27 07:06:30;;;;;;;;;;;;;;;-0.23;82.34;100047.91;124037;1112;23100;-58
2021/01/27 07:09:24;;;;;;;23.37;5.87;;;;;;;-0.23;82.34;100049.91;124304;1112;21536;-59
2021/01/27 07:12:06;;;;;;;21.17;5.63;;;;;;;-0.24;82.29;100046.38;124353;1113;26498;-57
2021/01/27 07:15:04;;;;;;;19.80;6.10;;;;;;;-0.23;82.72;100049.91;123978;1113;24681;-55
2021/01/27 07:17:56;;;;;;;21.77;6.00;;;;;;;-0.21;82.88;100050.27;125492;1112;23210;-57
2021/01/27 07:20:29;;;;;;;20.80;5.80;;;;;;;-0.20;82.87;100035.34;123887;1112;23055;-58
2021/01/27 07:23:05;;;;;;;21.10;6.15;;;;;;;-0.18;82.16;100046.69;124073;1112;28728;-56
2021/01/27 07:25:50;;;;;;;24.83;8.07;;;;;;;-0.16;81.96;100038.82;123969;1112;26185;-57
2021/01/27 07:28:26;;;;;;;25.10;8.15;;;;;;;-0.15;82.33;100043.92;124039;1112;23226;-57
2021/01/27 07:31:12;;;;;;;22.53;7.70;;;;;;;-0.13;82.45;100047.03;123864;1112;22988;-58
2021/01/27 07:33:48;;;;;;;23.70;7.43;;;;;;;-0.10;82.56;100046.19;124053;1112;23229;-58
2021/01/27 07:36:39;;;;;;;23.97;7.43;;;;;;;-0.07;81.78;100039.89;124150;1112;23000;-57
2021/01/27 07:39:14;;;;;;;27.67;7.53;;;;;;;-0.04;81.69;100046.50;124109;1112;23093;-56
2021/01/27 07:42:05;;;;;;;23.93;8.10;;;;;;;-0.03;82.61;100045.32;125345;1111;23078;-57
2021/01/27 07:44:36;;;;;;;28.17;8.83;;;;;;;-0.01;81.78;100049.22;124329;1110;23024;-57
2021/01/27 07:47:07;;;;;;;;;;;;;;;0.01;81.71;100037.82;124209;1112;23030;-59
2021/01/27 07:49:45;;;;;;;26.30;8.27;;;;;;;0.03;82.40;100043.67;124112;1112;25316;-58
2021/01/27 07:52:27;;;;;;;22.60;7.30;;;;;;;0.06;81.49;100051.09;124885;1112;23037;-58
2021/01/27 07:55:06;;;;;;;26.40;8.17;;;;;;;0.09;81.40;100043.98;128281;1111;24162;-59
2021/01/27 07:57:48;;;;;;;24.23;7.27;;;;;;;0.12;81.98;100049.44;124421;1112;23431;-59
2021/01/27 08:00:22;;;;;;;23.63;6.87;;;;;;;0.14;81.63;100047.06;124133;1109;28597;-57
2021/01/27 08:03:01;;;;;;;25.40;7.83;;;;;;;0.16;81.84;100047.42;124464;1111;25796;-57
2021/01/27 08:05:38;;;;;;;24.57;7.33;;;;;;;0.20;81.59;100050.89;124392;1109;23077;-57
2021/01/27 08:08:12;;;;;;;19.93;6.10;;;;;;;0.22;81.50;100048.52;124740;1109;23074;-57
2021/01/27 08:10:44;;;;;;;23.27;5.63;;;;;;;0.25;81.54;100047.67;124480;1112;23073;-57
2021/01/27 08:13:36;;;;;;;26.43;6.53;;;;;;;0.28;81.04;100057.05;124135;1109;24757;-58
2021/01/27 08:16:26;;;;;;;22.55;6.05;;;;;;;0.30;81.21;100055.45;124013;1110;26460;-58
2021/01/27 08:19:28;;;;;;;22.80;6.53;;;;;;;0.34;80.90;100064.41;124135;1111;23090;-55
2021/01/27 08:22:05;;;;;;;27.93;6.50;;;;;;;0.39;81.41;100063.17;124332;1111;26047;-58
2021/01/27 08:24:56;;;;;;;25.03;6.87;;;;;;;0.41;81.65;100050.59;124282;1112;23076;-58
2021/01/27 08:27:33;;;;;;;21.67;5.67;;;;;;;0.44;80.62;100059.95;124501;1110;23184;-57
2021/01/27 08:30:29;;;;;;;17.10;5.00;;;;;;;0.48;81.39;100060.67;124406;1110;23010;-57
2021/01/27 08:33:40;;;;;;;21.97;6.23;;;;;;;0.51;80.49;100065.34;124073;1111;27364;-57
2021/01/27 08:36:14;;;;;;;15.40;3.73;;;;;;;0.53;80.85;100063.75;124345;1109;22993;-58
2021/01/27 08:38:48;;;;;;;19.10;5.53;;;;;;;0.57;80.98;100066.42;124320;1109;23460;-59
2021/01/27 08:41:42;;;;;;;18.47;4.87;;;;;;;0.59;80.52;100064.83;124315;1111;23022;-57
2021/01/27 08:44:25;;;;;;;16.57;4.37;;;;;;;0.64;80.33;100074.58;124607;1109;23202;-59
2021/01/27 08:46:59;;;;;;;18.85;4.50;;;;;;;0.66;80.62;100070.19;124434;1110;24825;-57
2021/01/27 08:49:48;;;;;;;16.17;5.03;;;;;;;0.70;80.08;100076.41;124209;1110;23039;-59
2021/01/27 08:52:45;;;;;;;18.57;3.83;;;;;;;0.74;79.43;100076.38;124436;1110;23081;-58
2021/01/27 08:55:45;;;;;;;19.97;5.53;;;;;;;0.77;79.91;100081.80;128375;1109;22823;-58
2021/01/27 08:58:39;;;;;;;18.77;3.98;;;;;;;0.83;79.52;100084.84;124212;1112;23094;-59
2021/01/27 09:01:34;;;;;;;17.80;4.47;;;;;;;0.87;79.76;100082.06;124582;1112;23191;-60
2021/01/27 09:04:06;;;;;;;16.93;3.27;;;;;;;0.90;79.93;100089.45;124145;1111;23157;-59
2021/01/27 09:06:45;;;;;;;17.40;4.10;;;;;;;0.93;79.72;100085.89;124103;1112;23040;-57
2021/01/27 09:09:31;;;;;;;13.00;3.07;;;;;;;0.93;78.90;100094.92;124303;1112;24037;-57
2021/01/27 09:12:04;;;;;;;16.57;3.87;;;;;;;0.95;78.96;100092.53;125554;1111;23080;-58
2021/01/27 09:14:34;;;;;;;16.97;3.70;;;;;;;0.98;79.14;100096.39;124400;1112;26405;-58
2021/01/27 09:17:06;;;;;;;13.25;3.55;;;;;;;1.00;78.90;100100.28;124431;1111;23080;-58
2021/01/27 09:19:37;;;;;;;16.27;4.40;;;;;;;1.01;79.20;100104.59;124705;1112;23155;-58
2021/01/27 09:22:12;;;;;;;14.60;3.37;;;;;;;1.04;78.78;100100.22;124334;1112;25918;-58
2021/01/27 09:24:45;;;;;;;12.47;3.17;;;;;;;1.06;79.02;100106.07;124198;1112;27339;-57
2021/01/27 09:27:20;;;;;;;23.93;3.87;;;;;;;1.08;78.25;100104.47;124360;1111;23080;-57
2021/01/27 09:30:01;;;;;;;16.45;3.70;;;;;;;1.09;78.81;100111.53;124268;1112;26777;-58
2021/01/27 09:32:31;;;;;;;15.37;3.93;;;;;;;1.12;78.86;100118.17;124245;1112;24680;-56
2021/01/27 09:35:16;;;;;;;15.37;3.77;;;;;;;1.15;78.40;100109.08;124232;1112;23113;-57
2021/01/27 09:37:55;;;;;;;15.10;3.87;;;;;;;1.17;78.87;100107.47;124418;1110;27523;-56
2021/01/27 09:40:34;;;;;;;16.37;4.10;;;;;;;1.20;78.56;100103.11;124102;1109;26566;-57
2021/01/27 09:43:07;;;;;;;12.97;3.70;;;;;;;1.24;78.16;100101.07;124342;1112;23239;-55
2021/01/27 09:45:39;;;;;;;18.23;4.27;;;;;;;1.26;78.11;100098.68;124235;1109;26074;-56
2021/01/27 09:48:11;;;;;;;13.23;2.93;;;;;;;1.29;78.03;100100.58;124318;1110;23010;-58
2021/01/27 09:50:42;;;;;;;15.80;3.13;;;;;;;1.33;78.17;100099.32;124193;1109;23348;-59
2021/01/27 09:53:24;;;;;;;16.13;3.00;;;;;;;1.38;77.31;100098.06;124073;1110;23024;-58
2021/01/27 09:55:55;;;;;;;12.87;2.30;;;;;;;1.42;77.09;100093.28;124212;1110;23087;-59
2021/01/27 09:58:25;;;;;;;17.23;3.63;;;;;;;1.46;77.40;100089.27;124190;1109;22978;-58
2021/01/27 10:01:01;;;;;;;15.35;3.35;;;;;;;1.50;77.54;100092.73;124291;1111;24553;-58
2021/01/27 10:03:33;;;;;;;16.70;4.67;;;;;;;1.54;77.26;100095.41;124557;1112;23018;-58
2021/01/27 10:06:03;;;;;;;19.03;4.43;;;;;;;1.57;77.29;100095.33;124274;1109;23067;-59
2021/01/27 10:08:35;;;;;;;13.40;3.30;;;;;;;1.61;77.71;100095.28;124376;1109;23064;-57
2021/01/27 10:11:10;;;;;;;12.10;2.53;;;;;;;1.65;76.39;100101.50;124760;1112;23077;-58
2021/01/27 10:13:51;;;;;;;18.95;4.65;;;;;;;1.66;76.48;100092.03;124550;1111;27564;-61
2021/01/27 10:16:25;;;;;;;17.40;5.47;;;;;;;1.69;77.47;100091.20;124257;1110;24642;-58
2021/01/27 10:19:03;;;;;;;14.85;3.40;;;;;;;1.73;77.52;100083.64;124426;1110;23181;-58
2021/01/27 10:21:53;;;;;;;19.23;5.60;;;;;;;1.79;77.41;100089.42;125525;1109;23350;-58
2021/01/27 10:24:56;;;;;;;19.80;4.13;;;;;;;1.81;76.95;100093.31;127064;1110;25970;-58
2021/01/27 10:27:31;;;;;;;;;;;;;;;1.82;76.14;100088.59;124705;1112;27641;-59
2021/01/27 10:30:08;;;;;;;14.70;3.47;;;;;;;1.83;75.55;100079.91;124541;1112;21620;-59
2021/01/27 10:32:43;;;;;;;17.10;4.27;;;;;;;1.86;76.19;100092.05;124543;1112;23076;-58
2021/01/27 10:35:33;;;;;;;16.05;4.00;;;;;;;1.87;75.96;100097.13;124760;1112;23180;-57
2021/01/27 10:38:23;;;;;;;14.58;2.85;;;;;;;1.90;75.86;100088.03;124289;1112;27390;-58
2021/01/27 10:41:10;;;;;;;13.70;2.70;;;;;;;1.90;74.60;100087.25;124368;1112;27587;-57
2021/01/27 10:43:39;;;;;;;11.27;2.87;;;;;;;1.89;75.07;100088.43;124178;1112;24556;-59
2021/01/27 10:46:32;;;;;;;13.83;3.03;;;;;;;1.90;74.99;100082.52;124399;1111;23004;-59
2021/01/27 10:49:14;;;;;;;14.13;3.07;;;;;;;1.93;74.79;100081.66;124814;1112;23089;-58
2021/01/27 10:51:45;;;;;;;14.67;3.10;;;;;;;1.93;74.96;100078.91;124809;1112;23293;-55
2021/01/27 10:54:13;;;;;;;;;;;;;;;1.95;75.05;100070.22;124799;1112;23174;-59
2021/01/27 10:56:42;;;;;;;14.17;2.90;;;;;;;1.99;74.85;100076.42;124877;1111;21624;-57
2021/01/27 10:59:12;;;;;;;11.80;2.80;;;;;;;2.02;74.45;100078.34;124661;1111;23104;-59
2021/01/27 11:01:41;;;;;;;19.60;3.77;;;;;;;2.05;74.86;100080.26;124781;1109;23087;-58
2021/01/27 11:04:10;;;;;;;18.73;4.20;;;;;;;2.07;75.30;100070.34;125026;1110;23036;-59
2021/01/27 11:06:41;;;;;;;17.57;5.60;;;;;;;2.12;75.32;100063.57;124854;1109;27711;-58
2021/01/27 11:09:11;;;;;;;20.10;6.00;;;;;;;2.14;75.73;100058.41;124760;1110;23084;-57
2021/01/27 11:11:41;;;;;;;17.00;5.05;;;;;;;2.17;75.28;100065.84;125283;1110;23208;-58
2021/01/27 11:14:11;;;;;;;21.15;6.03;;;;;;;2.19;75.60;100066.94;124781;1109;26440;-59
2021/01/27 11:16:41;;;;;;;20.50;6.13;;;;;;;2.23;75.77;100062.16;124449;1109;23171;-59
2021/01/27 11:19:11;;;;;;;19.82;7.05;;;;;;;2.25;75.49;100067.23;124546;1109;23229;-58
2021/01/27 11:21:40;;;;;;;22.43;6.83;;;;;;;2.26;75.37;100063.25;125945;1109;23171;-58
2021/01/27 11:24:10;;;;;;;25.57;6.80;;;;;;;2.28;75.58;100066.36;124921;1110;23120;-58
2021/01/27 11:26:40;;;;;;;25.77;7.15;;;;;;;2.28;75.38;100066.36;124761;1109;23032;-59
2021/01/27 11:29:10;;;;;;;20.05;5.70;;;;;;;2.26;74.85;100066.80;125204;1110;23129;-60
2021/01/27 11:31:39;;;;;;;17.23;5.23;;;;;;;2.28;74.92;100063.60;125098;1109;23017;-59
2021/01/27 11:34:09;;;;;;;17.82;4.85;;;;;;;2.26;74.76;100064.03;124837;1110;26218;-58
2021/01/27 11:36:40;;;;;;;21.75;5.75;;;;;;;2.28;74.42;100058.09;124881;1109;23311;-58
2021/01/27 11:39:11;;;;;;;23.32;6.17;;;;;;;2.30;74.69;100067.48;124843;1109;23165;-58
2021/01/27 11:41:41;;;;;;;23.20;6.50;;;;;;;2.32;74.91;100047.77;124702;1110;26149;-58
2021/01/27 11:44:11;;;;;;;23.22;7.12;;;;;;;2.34;74.71;100057.17;124637;1109;23021;-58
2021/01/27 11:46:43;;;;;;;21.65;6.80;;;;;;;2.39;75.19;100055.89;125166;1110;27705;-58
2021/01/27 11:49:12;;;;;;;20.33;6.23;;;;;;;2.42;74.66;100058.55;124713;1109;23184;-59
2021/01/27 11:51:41;;;;;;;15.45;4.10;;;;;;;2.45;74.09;100054.17;124638;1110;23067;-58
2021/01/27 11:54:11;;;;;;;19.43;4.27;;;;;;;2.46;73.97;100056.48;124756;1109;23249;-58
2021/01/27 11:56:41;;;;;;;17.02;5.17;;;;;;;2.46;73.73;100064.76;124664;1110;23155;-58
2021/01/27 11:59:12;;;;;;;14.20;3.77;;;;;;;2.44;73.71;100045.13;124601;1109;23071;-58
2021/01/27 12:01:46;;;;;;;17.60;4.97;;;;;;;2.43;73.38;100051.07;124336;1110;23038;-58